Scroll down
FLIGHT INFORMATION
British Airways

BAW175

At Arrival Gate

EGLL
 KJFK
DATE: 2021-02-28
GATE:  -
GATE DEPARTURE: 10:39
TAKEOFF: 10:58
DATE: 2021-02-28
GATE: T4-95
LANDING: 18:06
GATE ARRIVAL: 18:20
FLIGHT DATA
Crew: 
Speed: 
907 kph
Altitude: 
40,118 ft
Stage Length: 
5,539.5 km
Block Time: 
7.6 hrs
Flight Time: 
7.1 hrs
Fuel Used: 
42,249 kg
Cleared Route: EGLL CPT KENET UGNUS OKTAD DOBEM TOPRO MEDOG FOXLA ABAPO PEMOB SLANY MALOT 5320N 5330N 5340N 5250N TUDEP TOPPS ENE KJFK
TRACK DATA
50,000 ft 1,000 kts
AIRCRAFT INFO AND CUMULATIVE STATS
Aircraft Type: 
B772
Registration: 
SELCAL: 
GKCR
MSN/LN: 
27486 / 56
Operator: 
Total Flights: 
2
Total Block Time: 
8.1 hrs
Total Flight Time: 
7.3 hrs
Total Fuel Used: 
44,106 kg
DATALINK LOG | Newest first | Current as of: 2022-11-30 11:44:26
LABEL SEQUENCE CONTENT Dn/Up
5Z221528 FEB 21 18:21:47z / FLT DECK GOOD / ACF POS GOOD / GRND SERVICES GOOD / MAINT GOOD▼ Dn
QD211418:20 21.5▼ Dn
QC070318:06▼ Dn
GA5118STAND T4-95▲ Up
GR5108KJFK 18:08 HI-VAL NO DIPL/VIP NO▼ Dn
2U4813KJFK 281451Z 04011KT 10SM FEW070 BKN130 OVC250 07/01 A3030 RMK AO2 SLP261 T00670006 58011▲ Up
2S4906KJFK▼ Dn
2U4845KJFK 281451Z 04011KT 10SM FEW070 BKN130 OVC250 07/01 A3030 RMK AO2 SLP261 T00670006 58011▲ Up
2S4806KJFK▼ Dn
UM2123566KJFK ATIS - JFK ATIS INFO L 1451Z. 05011KT 10SM FEW070 BKN130 OVC250 07/01 A3030 (THREE ZERO THREE ZERO). APPROACH IN USE ILS RY 31R, VISUAL APCH RY 31L. DEPG RY 31L. NOTAMS... JFK VOR OTS. RWY 3 1 RIGHT PAPI OTS. GENERAL AVIATION HELIPAD CLSD SUNSET TO SUNRISE DAILY. BIRD ACTIVITY VICINITY ARPT. NUM CRANES OPERATING AT JFK. READBACK ALL RWY HOLD SHORT INSTRUCTIONS. ...ADVS YOU HAVE INFO L.▲ Up
DM793556 ATIS KJFK A▼ Dn
UM201851CLEARED TO FL 400▲ Up
DM61841REQUEST FL 400 DUE TO A/C PERF▼ Dn
DM4803285250N 15:03z FL389 TUDEP 15:19z TOPPS M0.83 25.3 -54 234/44 KJFK 17:40z▼ Dn
DM4814475340N 14:13z FL390 5250N 15:00z TUDEP M0.83 29.9 -54 212/30 KJFK 17:37z▼ Dn
DM4826075330N 13:25z FL380 5340N 14:11z 5250N M0.83 34.5 -62 197/81 KJFK 17:34z▼ Dn
UM791315CLX 1213 210228 CYQX CLRNCE 350 BAW175 CLEARED TO KJFK VIA MALOT 53N020W 53N030W 53N040W 52N050W TUDEP MNTN F390 M083 GKCR.▲ Up
UM251305REQUESTING OCEANIC CLRNC CT EGGX CS EP MALOT FL 380 ETA 17:29 SPD M0.83▼ Dn
QB590410:58▼ Dn
QA394810:39 114.9▼ Dn
5Z334328 FEB 21 10:32:46z / FLT DECK GOOD / ACF POS GOOD / GRND SERVICES GOOD / MAINT GOOD▼ Dn
2U1055EGLL 280920Z 05004KT 020V090 4000 HZ SCT003 BKN005 04/03 Q1038 BECMG 9999 NSW SCT005▲ Up
2S1021EGLL▼ Dn
A30526CLEARED TO KJFK VIA CPT4K CPT UL9 KENET N14 PEMOB N24 SLANY MALOT NATA TUDEP N398A TOPPS ENE PARCH3. SQUAWK 6574.▲ Up
B30516EGLL KJFK BAW175 G-VIID I ▼ Dn
Q05405[LINK ACK]▲ Up
Q05405[LINK TEST]▼ Dn


AIRCRAFT HISTORY
FLIGHT DATE FLIGHT NO. ORIGIN DESTINATION CLEARED ROUTE BLOCK TIME FLIGHT TIME FUEL USED PILOT
2021-02-28BAW175EGLL KJFK EGLL CPT KENET UGNUS OKTAD DOBEM TOPRO MEDOG FOXLA ABAPO PEMOB SLANY MALOT 5320N 5330N 5340N 5250N TUDEP TOPPS ENE KJFK7.6 hrs7.1 hrs93,142 lbAnton Vind
2021-02-27BAW9151EGKK EGLL EGKK ACORN BIG EGLL0.5 hrs0.2 hrs4,094 lbAnton Vind